Time;durP1;ratioP1;P1;durP2;ratioP2;P2;SDS_P1;SDS_P2;PMS_P1;PMS_P2;Temp;Humidity;BMP_temperature;BMP_pressure;BME280_temperature;BME280_humidity;BME280_pressure;Samples;Min_cycle;Max_cycle;Signal;HPM_P1;HPM_P2
2021/06/13 00:01:13;;;;;;;5.15;4.15;;;;;;;22.61;57.86;98901.13;1741556;81;21117;-64
2021/06/13 00:03:40;;;;;;;5.65;4.22;;;;;;;22.58;57.93;98893.02;1735920;81;21493;-64
2021/06/13 00:06:06;;;;;;;5.90;3.90;;;;;;;22.56;58.07;98890.28;1742851;81;21002;-64
2021/06/13 00:08:32;;;;;;;5.83;4.12;;;;;;;22.51;58.23;98894.35;1737457;81;21045;-64
2021/06/13 00:10:59;;;;;;;6.20;4.53;;;;;;;22.52;58.34;98884.62;1736266;81;21094;-64
2021/06/13 00:13:26;;;;;;;5.33;4.28;;;;;;;22.50;58.37;98881.37;1740798;80;21007;-63
2021/06/13 00:15:52;;;;;;;5.62;4.42;;;;;;;22.49;58.34;98884.34;1731039;81;21073;-64
2021/06/13 00:18:20;;;;;;;5.53;4.65;;;;;;;22.47;58.37;98871.06;1745012;81;21505;-65
2021/06/13 00:20:48;;;;;;;6.67;4.90;;;;;;;22.44;58.44;98870.78;1726723;80;21068;-64
2021/06/13 00:23:15;;;;;;;4.75;4.10;;;;;;;22.40;58.51;98861.03;1743582;80;21126;-64
2021/06/13 00:25:42;;;;;;;6.28;4.58;;;;;;;22.37;58.66;98861.03;1743555;81;20995;-65
2021/06/13 00:28:08;;;;;;;6.80;4.30;;;;;;;22.34;58.59;98854.80;1736872;81;21684;-64
2021/06/13 00:30:35;;;;;;;5.72;4.37;;;;;;;22.33;58.82;98857.24;1740167;81;21051;-64
2021/06/13 00:33:02;;;;;;;6.35;4.95;;;;;;;22.32;58.76;98850.73;1741845;80;21006;-63
2021/06/13 00:35:28;;;;;;;4.85;4.20;;;;;;;22.32;58.58;98852.09;1740837;81;22036;-65
2021/06/13 00:37:55;;;;;;;5.20;4.65;;;;;;;22.30;58.67;98843.43;1742297;81;21121;-65
2021/06/13 00:40:24;;;;;;;6.67;4.33;;;;;;;22.30;58.63;98852.35;1742934;81;21377;-64
2021/06/13 00:42:51;;;;;;;5.45;4.40;;;;;;;22.30;58.56;98846.14;1753492;80;21030;-64
2021/06/13 00:45:17;;;;;;;7.65;4.67;;;;;;;22.28;58.53;98845.05;1738197;81;21061;-64
2021/06/13 00:47:44;;;;;;;5.75;4.72;;;;;;;22.27;58.47;98841.25;1741812;81;21140;-63
2021/06/13 00:50:34;;;;;;;12.07;5.25;;;;;;;22.25;58.49;98836.64;1752654;81;21006;-66
2021/06/13 00:53:04;;;;;;;6.78;4.62;;;;;;;22.23;58.63;98835.52;1745984;80;21478;-65
2021/06/13 00:55:32;;;;;;;6.53;5.10;;;;;;;22.20;58.66;98832.02;1750117;81;21042;-64
2021/06/13 00:57:58;;;;;;;5.45;4.95;;;;;;;22.17;58.66;98835.23;1752988;81;21045;-65
2021/06/13 01:00:25;;;;;;;6.20;4.72;;;;;;;22.13;58.70;98825.48;1748643;80;21803;-64
2021/06/13 01:02:52;;;;;;;6.92;4.35;;;;;;;22.11;58.90;98830.35;1745529;81;21050;-65
2021/06/13 01:05:19;;;;;;;5.55;5.05;;;;;;;22.09;59.02;98825.75;1734526;81;21524;-66
2021/06/13 01:08:01;;;;;;;6.62;4.25;;;;;;;22.08;59.04;98830.91;1736989;81;21002;-64
2021/06/13 01:11:05;;;;;;;4.67;4.28;;;;;;;22.05;59.06;98819.80;1740104;80;21057;-64
2021/06/13 01:14:07;;;;;;;4.90;4.47;;;;;;;22.04;58.96;98811.40;1728310;81;21388;-64
2021/06/13 01:16:52;;;;;;;5.03;4.25;;;;;;;22.03;58.96;98812.49;1742037;80;21041;-64
2021/06/13 01:19:25;;;;;;;6.40;4.35;;;;;;;22.01;58.82;98801.12;1741906;80;21010;-64
2021/06/13 01:22:27;;;;;;;5.00;4.30;;;;;;;21.97;58.92;98798.95;1750711;81;21116;-66
2021/06/13 01:25:09;;;;;;;6.15;4.10;;;;;;;21.97;58.92;98798.95;1738221;81;21582;-63
2021/06/13 01:28:16;;;;;;;6.70;4.60;;;;;;;21.95;58.76;98797.05;1748365;80;21130;-64
2021/06/13 01:30:43;;;;;;;5.87;4.08;;;;;;;21.93;58.70;98787.59;1742303;81;21041;-64
2021/06/13 01:33:12;;;;;;;5.45;4.28;;;;;;;21.91;58.49;98789.75;1699246;81;21064;-64
2021/06/13 01:35:41;;;;;;;5.12;4.53;;;;;;;21.89;58.46;98790.55;1737313;81;21002;-64
2021/06/13 01:38:11;;;;;;;6.03;4.30;;;;;;;21.91;58.59;98793.25;1748699;80;21013;-66
2021/06/13 01:40:38;;;;;;;4.92;4.42;;;;;;;21.90;58.58;98783.50;1736293;81;21264;-65
2021/06/13 01:43:05;;;;;;;6.62;4.33;;;;;;;21.90;58.41;98772.69;1749817;81;21026;-65
2021/06/13 01:45:35;;;;;;;5.72;5.22;;;;;;;21.89;58.43;98784.59;1735041;81;21523;-64
2021/06/13 01:48:05;;;;;;;6.30;4.40;;;;;;;21.89;58.46;98782.44;1746464;81;21085;-65
2021/06/13 01:50:32;;;;;;;4.95;4.53;;;;;;;21.86;58.54;98777.00;1709862;82;21090;-65
2021/06/13 01:53:02;;;;;;;5.67;4.95;;;;;;;21.86;58.61;98774.30;1738545;81;21150;-66
2021/06/13 01:55:29;;;;;;;5.45;4.95;;;;;;;21.85;58.53;98766.48;1745396;81;21037;-65
2021/06/13 01:57:56;;;;;;;5.35;4.85;;;;;;;21.85;58.50;98769.19;1746447;81;21112;-64
2021/06/13 02:00:31;;;;;;;6.83;5.15;;;;;;;21.84;58.54;98772.95;1751756;81;21026;-65
2021/06/13 02:02:59;;;;;;;5.62;4.85;;;;;;;21.81;58.53;98774.31;1741161;80;21054;-66
2021/06/13 02:05:43;;;;;;;5.95;4.90;;;;;;;21.80;58.48;98774.02;1741581;81;21791;-65
2021/06/13 02:08:10;;;;;;;5.50;4.78;;;;;;;21.76;58.49;98769.67;1739304;80;21021;-64
2021/06/13 02:10:37;;;;;;;6.53;4.87;;;;;;;21.73;58.63;98765.34;1737472;80;21530;-64
2021/06/13 02:13:04;;;;;;;9.58;5.22;;;;;;;21.72;58.62;98761.02;1743283;81;21026;-64
2021/06/13 02:15:35;;;;;;;6.20;5.20;;;;;;;21.70;58.80;98760.48;1739500;80;21001;-65
2021/06/13 02:18:04;;;;;;;5.60;5.08;;;;;;;21.69;58.89;98758.84;1746795;81;21164;-65
2021/06/13 02:20:32;;;;;;;7.80;5.80;;;;;;;21.67;59.00;98746.13;1711408;80;21514;-65
2021/06/13 02:22:59;;;;;;;6.08;5.47;;;;;;;21.66;58.89;98746.67;1737760;81;21125;-64
2021/06/13 02:25:26;;;;;;;5.95;5.35;;;;;;;21.64;59.08;98743.43;1740662;81;21034;-65
2021/06/13 02:27:59;;;;;;;6.90;5.45;;;;;;;21.63;59.23;98749.90;1743296;81;21054;-65
2021/06/13 02:30:32;;;;;;;7.53;6.12;;;;;;;21.63;59.11;98753.95;1746087;81;21107;-64
2021/06/13 02:32:59;;;;;;;5.80;5.30;;;;;;;21.61;59.20;98746.65;1739387;80;21073;-65
2021/06/13 02:35:27;;;;;;;6.45;5.80;;;;;;;21.61;59.31;98750.70;1745810;80;21007;-65
2021/06/13 02:37:56;;;;;;;5.75;5.08;;;;;;;21.63;59.37;98748.55;1738917;81;21018;-65
2021/06/13 02:40:25;;;;;;;5.70;5.05;;;;;;;21.64;59.31;98749.38;1743829;81;21096;-65
2021/06/13 02:42:52;;;;;;;5.22;4.65;;;;;;;21.64;59.28;98743.43;1736552;81;21125;-65
2021/06/13 02:45:23;;;;;;;7.08;5.17;;;;;;;21.64;59.19;98741.27;1738359;81;21039;-63
2021/06/13 02:47:51;;;;;;;7.50;5.03;;;;;;;21.64;59.24;98731.27;1753019;81;21054;-65
2021/06/13 02:50:22;;;;;;;5.50;4.95;;;;;;;21.65;59.18;98734.23;1745363;80;21026;-65
2021/06/13 02:52:57;;;;;;;5.87;5.37;;;;;;;21.65;59.13;98726.12;1722641;81;21594;-66
2021/06/13 02:55:34;;;;;;;8.80;5.00;;;;;;;21.67;59.10;98732.10;1721832;82;21023;-65
2021/06/13 02:58:28;;;;;;;5.53;4.80;;;;;;;21.67;59.02;98732.10;1722565;81;21034;-65
2021/06/13 03:00:56;;;;;;;5.45;4.95;;;;;;;21.69;58.96;98727.23;1735530;81;21026;-65
2021/06/13 03:03:22;;;;;;;5.12;4.67;;;;;;;21.69;59.01;98729.94;1747843;81;21605;-64
2021/06/13 03:05:50;;;;;;;7.67;4.70;;;;;;;21.71;58.94;98734.54;1751010;81;21124;-64
2021/06/13 03:08:19;;;;;;;5.40;4.90;;;;;;;21.72;58.78;98733.45;1749657;81;21811;-65
2021/06/13 03:10:51;;;;;;;4.85;4.37;;;;;;;21.68;58.71;98724.80;1748777;81;21108;-64
2021/06/13 03:13:24;;;;;;;6.22;4.72;;;;;;;21.76;58.63;98731.83;1747024;81;21058;-65
2021/06/13 03:15:52;;;;;;;5.70;4.75;;;;;;;21.78;58.55;98729.67;1748998;81;21078;-65
2021/06/13 03:18:19;;;;;;;7.05;5.42;;;;;;;21.79;58.43;98725.91;1742216;81;21513;-66
2021/06/13 03:20:46;;;;;;;9.63;5.15;;;;;;;21.79;58.50;98727.26;1745329;81;21135;-65
2021/06/13 03:23:13;;;;;;;6.10;5.12;;;;;;;21.82;58.49;98731.31;1745464;81;21022;-66
2021/06/13 03:25:40;;;;;;;6.55;5.28;;;;;;;21.83;58.46;98729.41;1732829;82;21632;-64
2021/06/13 03:28:07;;;;;;;6.37;5.47;;;;;;;21.84;58.36;98730.50;1729704;82;21606;-65
2021/06/13 03:30:35;;;;;;;8.93;5.62;;;;;;;21.86;58.37;98731.59;1729522;80;21037;-64
2021/06/13 03:33:04;;;;;;;5.97;5.37;;;;;;;21.87;58.37;98729.18;1716091;82;21836;-66
2021/06/13 03:35:32;;;;;;;7.15;5.53;;;;;;;21.89;58.29;98731.88;1717718;82;21273;-65
2021/06/13 03:37:59;;;;;;;7.83;5.90;;;;;;;21.89;58.24;98730.52;1734630;82;21214;-64
2021/06/13 03:40:26;;;;;;;6.55;5.62;;;;;;;21.90;58.05;98732.13;1722833;82;22063;-65
2021/06/13 03:42:54;;;;;;;6.47;5.67;;;;;;;21.93;58.07;98738.92;1740746;82;21020;-65
2021/06/13 03:45:25;;;;;;;10.98;6.62;;;;;;;21.95;57.99;98727.30;1723577;81;21187;-65
2021/06/13 03:47:52;;;;;;;7.90;6.10;;;;;;;21.96;57.92;98733.80;1714279;82;21066;-65
2021/06/13 03:50:19;;;;;;;8.78;5.80;;;;;;;21.97;57.91;98731.34;1716386;82;21098;-64
2021/06/13 03:52:46;;;;;;;7.83;5.83;;;;;;;21.98;57.97;98734.34;1737994;81;20999;-66
2021/06/13 03:55:12;;;;;;;6.62;5.62;;;;;;;22.00;57.71;98734.08;1726552;81;21120;-65
2021/06/13 03:57:44;;;;;;;8.08;6.08;;;;;;;22.01;57.77;98726.22;1717412;82;21437;-64
2021/06/13 04:00:12;;;;;;;8.03;6.35;;;;;;;22.03;57.80;98727.31;1730891;80;21034;-66
2021/06/13 04:02:41;;;;;;;7.25;6.03;;;;;;;22.05;57.62;98722.45;1732714;82;21043;-64
2021/06/13 04:05:09;;;;;;;7.95;6.53;;;;;;;22.07;57.59;98728.39;1734576;82;21046;-65
2021/06/13 04:07:41;;;;;;;7.28;6.03;;;;;;;22.09;57.56;98727.59;1735144;81;21050;-66
2021/06/13 04:10:09;;;;;;;7.03;6.33;;;;;;;22.12;57.60;98727.86;1723812;81;21079;-64
2021/06/13 04:12:36;;;;;;;7.97;6.12;;;;;;;22.15;57.39;98726.50;1722713;82;20987;-64
2021/06/13 04:15:04;;;;;;;6.70;6.10;;;;;;;22.16;57.41;98718.67;1716952;82;21054;-64
2021/06/13 04:17:31;;;;;;;6.28;5.67;;;;;;;22.17;57.71;98719.77;1737951;82;21014;-64
2021/06/13 04:19:58;;;;;;;7.45;5.50;;;;;;;22.19;57.48;98718.95;1669548;83;21019;-63
2021/06/13 04:22:24;;;;;;;6.15;5.45;;;;;;;22.23;57.29;98712.98;1721167;81;21633;-64
2021/06/13 04:24:53;;;;;;;5.50;4.78;;;;;;;22.27;57.17;98711.39;1727215;80;21086;-66
2021/06/13 04:27:23;;;;;;;5.70;5.20;;;;;;;22.29;57.27;98708.71;1726603;80;21359;-65
2021/06/13 04:29:51;;;;;;;9.05;4.72;;;;;;;22.33;57.33;98715.75;1731336;82;21027;-64
2021/06/13 04:32:18;;;;;;;8.13;4.92;;;;;;;22.36;57.39;98711.94;1734363;82;21022;-65
2021/06/13 04:34:44;;;;;;;8.78;5.35;;;;;;;22.38;57.35;98708.42;1714426;81;21146;-65
2021/06/13 04:37:12;;;;;;;7.70;4.90;;;;;;;22.42;57.08;98708.69;1720636;82;22222;-65
2021/06/13 04:39:38;;;;;;;6.60;5.30;;;;;;;22.45;57.06;98706.81;1725561;81;21010;-66
2021/06/13 04:42:06;;;;;;;10.30;5.20;;;;;;;22.47;57.12;98705.19;1726931;82;21525;-65
2021/06/13 04:44:34;;;;;;;5.37;4.50;;;;;;;22.51;57.00;98703.56;1716031;81;21050;-65
2021/06/13 04:47:01;;;;;;;6.60;5.25;;;;;;;22.52;57.17;98708.71;1714190;80;21106;-65
2021/06/13 04:49:27;;;;;;;5.80;5.20;;;;;;;22.55;56.95;98713.56;1715079;80;21094;-65
2021/06/13 04:51:57;;;;;;;7.70;4.97;;;;;;;22.60;56.98;98715.98;1722039;81;21010;-65
2021/06/13 04:55:13;;;;;;;7.45;5.20;;;;;;;22.63;56.69;98712.75;1733043;82;21034;-65
2021/06/13 04:57:57;;;;;;;5.05;4.55;;;;;;;22.68;56.57;98710.05;1737794;82;21056;-65
2021/06/13 05:00:23;;;;;;;7.10;4.92;;;;;;;22.70;56.63;98712.74;1728574;82;21819;-64
2021/06/13 05:02:50;;;;;;;6.62;4.50;;;;;;;22.77;56.50;98704.33;1732684;82;21509;-64
2021/06/13 05:05:17;;;;;;;6.17;4.60;;;;;;;22.83;56.26;98707.32;1729993;82;21026;-66
2021/06/13 05:07:44;;;;;;;7.42;5.62;;;;;;;22.90;55.88;98709.73;1727189;82;21038;-66
2021/06/13 05:10:12;;;;;;;6.03;5.42;;;;;;;22.93;55.76;98723.53;1722466;80;21015;-67
2021/06/13 05:12:49;;;;;;;6.80;5.03;;;;;;;22.95;55.44;98717.30;1723303;82;21062;-65
2021/06/13 05:15:17;;;;;;;7.37;5.10;;;;;;;22.97;55.58;98722.45;1721321;81;21046;-64
2021/06/13 05:17:44;;;;;;;4.90;4.20;;;;;;;22.99;55.07;98705.37;1734535;80;21067;-64
2021/06/13 05:20:12;;;;;;;5.47;3.85;;;;;;;22.97;54.70;98705.65;1719120;82;21038;-65
2021/06/13 05:22:56;;;;;;;4.65;4.20;;;;;;;22.96;54.36;98713.49;1724800;80;21026;-64
2021/06/13 05:25:26;;;;;;;4.30;3.72;;;;;;;22.96;54.14;98702.66;1730260;80;21132;-65
2021/06/13 05:27:55;;;;;;;4.53;4.12;;;;;;;22.99;54.10;98705.94;1739300;80;21556;-65
2021/06/13 05:30:24;;;;;;;4.90;3.50;;;;;;;23.01;53.83;98703.76;1742371;81;21006;-65
2021/06/13 05:32:50;;;;;;;4.10;3.75;;;;;;;23.04;54.15;98701.86;1743059;80;21026;-65
2021/06/13 05:35:17;;;;;;;3.98;3.65;;;;;;;23.08;53.60;98707.83;1739130;81;21029;-64
2021/06/13 05:37:44;;;;;;;7.15;4.03;;;;;;;23.10;53.58;98704.82;1729136;81;21021;-65
2021/06/13 05:40:12;;;;;;;5.95;3.67;;;;;;;23.12;53.04;98695.36;1732769;81;21033;-65
2021/06/13 05:42:39;;;;;;;4.92;3.45;;;;;;;23.14;52.85;98693.70;1740459;81;20990;-65
2021/06/13 05:45:08;;;;;;;6.45;3.83;;;;;;;23.16;52.68;98686.14;1743494;80;21104;-66
2021/06/13 05:47:35;;;;;;;5.87;4.15;;;;;;;23.18;52.57;98687.19;1744301;81;21057;-64
2021/06/13 05:50:04;;;;;;;5.75;4.08;;;;;;;23.19;52.67;98683.41;1748176;80;22328;-65
2021/06/13 05:52:30;;;;;;;4.62;4.17;;;;;;;23.23;52.51;98687.18;1732829;81;21100;-64
2021/06/13 05:54:57;;;;;;;4.40;3.72;;;;;;;23.27;52.71;98690.41;1739481;80;21086;-65
2021/06/13 05:57:30;;;;;;;3.85;3.22;;;;;;;23.31;52.00;98687.43;1746435;81;21108;-65
2021/06/13 05:59:54;;;;;;;4.80;3.40;;;;;;;23.31;51.61;98684.72;1730005;81;21136;-65
2021/06/13 06:02:21;;;;;;;3.42;3.05;;;;;;;23.30;51.53;98672.25;1741994;81;21128;-65
2021/06/13 06:04:48;;;;;;;4.58;4.10;;;;;;;23.31;51.58;98691.50;1740819;81;21042;-64
2021/06/13 06:07:14;;;;;;;5.62;3.72;;;;;;;23.33;51.61;98690.67;1748087;80;21022;-65
2021/06/13 06:09:40;;;;;;;4.35;3.52;;;;;;;;;;1744701;81;21100;-66
2021/06/13 06:12:10;;;;;;;4.10;3.77;;;;;;;23.42;51.61;98692.80;1746709;80;21085;-65
2021/06/13 06:14:36;;;;;;;4.03;3.45;;;;;;;23.45;51.69;98701.19;1743999;81;21135;-66
2021/06/13 06:17:04;;;;;;;8.05;3.87;;;;;;;23.49;51.84;98699.54;1737202;80;21627;-65
2021/06/13 06:19:30;;;;;;;4.47;3.65;;;;;;;23.51;51.95;98706.84;1737871;81;21014;-65
2021/06/13 06:21:57;;;;;;;4.03;3.60;;;;;;;23.55;51.86;98710.62;1743323;80;21085;-65
2021/06/13 06:24:24;;;;;;;4.37;3.98;;;;;;;23.58;51.83;98698.95;1742375;80;21575;-65
2021/06/13 06:26:50;;;;;;;7.58;4.12;;;;;;;23.64;51.84;98705.44;1736606;80;22343;-65
2021/06/13 06:29:19;;;;;;;4.85;3.70;;;;;;;23.69;51.53;98704.59;1740800;80;21066;-64
2021/06/13 06:31:46;;;;;;;7.47;3.75;;;;;;;23.71;51.32;98699.14;1735107;81;21018;-64
2021/06/13 06:34:14;;;;;;;4.22;3.83;;;;;;;23.74;51.38;98698.59;1739696;80;21041;-64
2021/06/13 06:36:41;;;;;;;6.00;3.85;;;;;;;23.79;51.52;98707.81;1744040;80;21064;-64
2021/06/13 06:40:43;;;;;;;4.42;4.03;;;;;;;23.89;50.89;98701.80;1858033;76;22666;-65
2021/06/13 06:43:10;;;;;;;4.62;4.22;;;;;;;23.84;50.57;98690.17;1820134;77;21025;-66
2021/06/13 06:45:38;;;;;;;4.42;4.03;;;;;;;23.87;50.60;98697.72;1812958;78;21072;-64
2021/06/13 06:48:06;;;;;;;4.70;4.25;;;;;;;23.90;50.46;98700.69;1805730;78;20921;-65
2021/06/13 06:50:32;;;;;;;5.05;4.22;;;;;;;23.92;50.34;98705.84;1796336;78;21084;-65
2021/06/13 06:52:59;;;;;;;4.78;4.10;;;;;;;23.94;50.23;98705.01;1818506;77;21088;-65
2021/06/13 06:55:25;;;;;;;4.67;4.20;;;;;;;23.93;50.11;98710.98;1816921;78;21057;-65
2021/06/13 06:57:52;;;;;;;5.28;3.90;;;;;;;23.96;50.21;98705.54;1800433;78;21786;-64
2021/06/13 07:00:19;;;;;;;5.85;4.30;;;;;;;23.98;50.42;98706.06;1801663;77;20979;-64
2021/06/13 07:02:45;;;;;;;7.25;5.33;;;;;;;24.04;50.59;98706.84;1819536;78;21068;-63
2021/06/13 07:05:12;;;;;;;7.55;5.40;;;;;;;24.08;51.16;98717.39;1810166;78;20990;-64
2021/06/13 07:07:39;;;;;;;5.40;4.78;;;;;;;24.13;51.24;98708.67;1817552;77;21068;-65
2021/06/13 07:10:09;;;;;;;6.90;4.62;;;;;;;24.17;51.57;98729.27;1811424;78;22915;-64
2021/06/13 07:12:35;;;;;;;6.17;4.35;;;;;;;24.20;51.42;98709.70;1819690;78;21049;-65
2021/06/13 07:15:06;;;;;;;5.78;4.83;;;;;;;24.24;51.50;98730.30;1818436;77;20997;-65
2021/06/13 07:17:32;;;;;;;5.40;4.72;;;;;;;24.28;51.75;98716.42;1820520;78;21020;-64
2021/06/13 07:19:59;;;;;;;5.15;4.70;;;;;;;24.29;52.04;98713.98;1812613;78;21592;-65
2021/06/13 07:22:26;;;;;;;5.33;4.83;;;;;;;24.31;52.21;98707.73;1812518;78;21228;-64
2021/06/13 07:24:53;;;;;;;6.78;4.80;;;;;;;24.34;52.49;98710.69;1808904;78;21021;-65
2021/06/13 07:27:20;;;;;;;5.47;4.50;;;;;;;24.39;52.48;98707.11;1800926;78;21041;-65
2021/06/13 07:29:47;;;;;;;8.20;4.83;;;;;;;24.43;52.57;98710.88;1815921;77;21049;-64
2021/06/13 07:32:13;;;;;;;4.80;4.40;;;;;;;24.46;52.49;98711.67;1810520;78;21544;-63
2021/06/13 07:34:39;;;;;;;6.08;4.62;;;;;;;24.50;52.36;98711.91;1776481;78;21139;-64
2021/06/13 07:37:07;;;;;;;5.37;4.62;;;;;;;24.52;52.29;98715.98;1812279;78;20992;-65
2021/06/13 07:39:33;;;;;;;9.85;8.85;;;;;;;24.57;52.30;98708.89;1794095;77;21050;-65
2021/06/13 07:42:01;;;;;;;12.33;8.55;;;;;;;24.62;52.29;98710.21;1822663;78;21022;-64
2021/06/13 07:44:32;;;;;;;8.70;6.10;;;;;;;24.66;52.47;98708.54;1804390;78;20981;-64
2021/06/13 07:46:58;;;;;;;6.03;5.47;;;;;;;24.71;52.33;98709.86;1805120;78;21122;-65
2021/06/13 07:49:26;;;;;;;6.33;4.75;;;;;;;24.76;51.93;98707.08;1813945;78;21070;-65
2021/06/13 07:51:53;;;;;;;4.87;4.42;;;;;;;24.79;51.79;98716.02;1814754;78;20997;-66
2021/06/13 07:54:20;;;;;;;4.62;4.20;;;;;;;24.82;51.49;98723.61;1818794;78;21528;-65
2021/06/13 07:56:47;;;;;;;5.42;4.67;;;;;;;24.84;51.10;98728.73;1815556;78;21018;-65
2021/06/13 07:59:14;;;;;;;7.65;4.80;;;;;;;24.86;50.95;98736.03;1822572;77;21093;-64
2021/06/13 08:01:40;;;;;;;6.90;4.42;;;;;;;24.86;50.89;98730.08;1819182;78;21048;-65
2021/06/13 08:04:07;;;;;;;6.62;4.28;;;;;;;24.90;50.99;98725.69;1812911;78;21045;-65
2021/06/13 08:06:33;;;;;;;5.15;4.65;;;;;;;24.95;50.98;98723.45;1809416;78;21018;-66
2021/06/13 08:09:00;;;;;;;6.45;4.87;;;;;;;24.99;50.58;98715.55;1816015;78;21035;-66
2021/06/13 08:11:29;;;;;;;5.15;4.65;;;;;;;25.03;50.50;98720.11;1812637;78;21107;-65
2021/06/13 08:13:57;;;;;;;6.50;5.00;;;;;;;25.07;50.45;98718.45;1821374;78;21092;-66
2021/06/13 08:16:23;;;;;;;5.58;5.08;;;;;;;25.10;50.54;98725.21;1820933;78;21697;-65
2021/06/13 08:18:50;;;;;;;5.72;4.95;;;;;;;25.14;50.45;98727.61;1816127;77;21088;-64
2021/06/13 08:21:17;;;;;;;5.42;5.03;;;;;;;25.15;50.45;98725.69;1822086;77;21044;-65
2021/06/13 08:23:43;;;;;;;5.65;5.15;;;;;;;25.18;50.13;98721.05;1819783;77;21956;-64
2021/06/13 08:26:10;;;;;;;5.72;5.12;;;;;;;25.22;49.77;98721.56;1819161;77;21208;-64
2021/06/13 08:28:36;;;;;;;5.05;4.60;;;;;;;25.24;49.70;98713.92;1818841;77;21051;-65
2021/06/13 08:31:03;;;;;;;5.50;5.00;;;;;;;25.28;49.64;98717.70;1823327;78;21044;-64
2021/06/13 08:33:30;;;;;;;5.17;4.65;;;;;;;25.33;49.25;98730.97;1823403;78;21536;-65
2021/06/13 08:35:58;;;;;;;5.47;4.95;;;;;;;25.33;49.17;98719.55;1819923;78;21141;-65
2021/06/13 08:38:24;;;;;;;5.45;4.90;;;;;;;25.39;49.19;98717.58;1803192;78;21109;-66
2021/06/13 08:40:52;;;;;;;6.00;5.03;;;;;;;25.43;49.14;98715.89;1800864;77;21015;-66
2021/06/13 08:43:19;;;;;;;7.30;5.33;;;;;;;25.48;49.58;98719.91;1791847;78;21560;-67
2021/06/13 08:45:46;;;;;;;7.92;5.28;;;;;;;25.55;49.90;98727.70;1766657;80;20992;-66
2021/06/13 08:48:13;;;;;;;5.22;4.78;;;;;;;25.60;50.25;98729.00;1797422;77;21080;-66
2021/06/13 08:50:40;;;;;;;6.30;5.10;;;;;;;25.64;50.29;98729.48;1803801;78;21508;-66
2021/06/13 08:53:06;;;;;;;7.37;6.67;;;;;;;25.67;50.43;98737.06;1818325;77;21454;-66
2021/06/13 08:55:33;;;;;;;11.97;9.20;;;;;;;25.70;50.41;98756.06;1819766;78;21055;-65
2021/06/13 08:58:00;;;;;;;9.45;7.50;;;;;;;25.69;50.45;98753.06;1806969;78;20997;-67
2021/06/13 09:00:30;;;;;;;7.55;6.42;;;;;;;25.69;50.43;98758.51;1814471;78;21976;-67
2021/06/13 09:02:57;;;;;;;6.37;5.78;;;;;;;25.69;50.43;98759.34;1813591;77;20981;-67
2021/06/13 09:05:25;;;;;;;9.80;8.70;;;;;;;25.70;50.69;98763.66;1811968;78;21072;-67
2021/06/13 09:07:57;;;;;;;28.85;24.27;;;;;;;25.73;51.17;98768.26;1819427;78;21029;-67
2021/06/13 09:10:28;;;;;;;17.70;15.68;;;;;;;25.73;51.49;98758.73;1809551;78;21013;-67
2021/06/13 09:13:22;;;;;;;13.13;11.48;;;;;;;25.73;51.74;98766.37;1815452;77;21114;-64
2021/06/13 09:15:54;;;;;;;9.18;7.95;;;;;;;25.73;52.12;98766.90;1807251;77;21068;-65
2021/06/13 09:18:43;;;;;;;7.90;7.20;;;;;;;25.73;52.52;98766.90;1818988;77;21567;-66
2021/06/13 09:21:23;;;;;;;8.53;6.55;;;;;;;25.72;52.82;98763.38;1776902;80;21585;-67
2021/06/13 09:23:49;;;;;;;6.67;5.97;;;;;;;25.72;52.67;98756.58;1746942;81;21090;-67
2021/06/13 09:26:17;;;;;;;8.38;6.72;;;;;;;25.70;52.13;98750.06;1737266;82;21128;-67
2021/06/13 09:28:47;;;;;;;6.22;5.62;;;;;;;25.72;51.97;98749.78;1803303;78;21044;-68
2021/06/13 09:31:17;;;;;;;6.53;5.95;;;;;;;25.77;51.84;98751.61;1818767;78;21073;-68
2021/06/13 09:33:45;;;;;;;5.58;5.00;;;;;;;25.82;51.57;98744.19;1805619;77;21513;-69
2021/06/13 09:36:28;;;;;;;5.20;4.80;;;;;;;25.87;51.21;98740.61;1775049;80;21076;-66
2021/06/13 09:38:55;;;;;;;5.12;4.67;;;;;;;25.90;50.85;98734.56;1749645;80;21058;-68
2021/06/13 09:41:23;;;;;;;5.70;4.42;;;;;;;25.93;50.70;98732.66;1771809;79;20990;-67
2021/06/13 09:44:01;;;;;;;8.45;4.22;;;;;;;25.97;50.71;98735.05;1779305;80;21064;-67
2021/06/13 09:46:30;;;;;;;4.47;3.67;;;;;;;26.02;50.37;98743.14;1780130;80;21463;-68
2021/06/13 09:49:04;;;;;;;5.22;4.00;;;;;;;26.04;50.13;98740.94;1777354;80;21025;-69
2021/06/13 09:51:34;;;;;;;6.72;4.70;;;;;;;26.06;50.06;98750.17;1779514;79;21095;-68
2021/06/13 09:54:05;;;;;;;7.65;4.62;;;;;;;26.07;50.04;98752.58;1803553;78;21073;-66
2021/06/13 09:56:36;;;;;;;7.50;4.08;;;;;;;26.10;49.94;98759.36;1816810;78;21044;-68
2021/06/13 09:59:27;;;;;;;8.63;7.87;;;;;;;26.12;49.78;98763.16;1819777;78;21580;-69
2021/06/13 10:01:57;;;;;;;8.23;7.17;;;;;;;26.12;49.47;98765.87;1819239;77;20994;-68
2021/06/13 10:04:30;;;;;;;5.92;5.35;;;;;;;26.13;49.54;98774.28;1815202;78;21110;-68
2021/06/13 10:07:01;;;;;;;;;;;;;;;26.17;49.40;98767.95;1811600;77;21036;-67
2021/06/13 10:09:40;;;;;;;4.87;3.40;;;;;;;26.23;48.99;98774.95;1796447;77;20484;-69
2021/06/13 10:12:12;;;;;;;5.28;2.98;;;;;;;26.17;48.73;98777.47;1816807;77;21571;-69
2021/06/13 10:14:40;;;;;;;4.17;2.47;;;;;;;26.15;48.06;98773.44;1812394;77;21808;-69
2021/06/13 10:17:08;;;;;;;3.35;3.00;;;;;;;26.07;48.16;98770.83;1814800;77;21119;-68
2021/06/13 10:19:47;;;;;;;3.72;2.60;;;;;;;26.06;48.26;98764.58;1816709;77;21072;-66
2021/06/13 10:22:16;;;;;;;3.00;2.70;;;;;;;26.08;48.05;98764.30;1818521;78;21600;-71
2021/06/13 10:24:44;;;;;;;3.52;2.40;;;;;;;26.09;47.85;98769.42;1756177;80;21096;-70
2021/06/13 10:27:19;;;;;;;2.42;2.10;;;;;;;26.07;47.38;98770.83;1747586;81;21050;-71
2021/06/13 10:29:48;;;;;;;2.60;1.87;;;;;;;26.07;47.21;98779.79;1741315;81;21133;-69
2021/06/13 10:32:17;;;;;;;4.60;3.12;;;;;;;26.06;46.68;98781.47;1740051;81;22127;-72
2021/06/13 10:34:43;;;;;;;4.12;3.72;;;;;;;26.03;46.23;98787.48;1818033;78;21041;-80
2021/06/13 10:37:13;;;;;;;2.80;2.42;;;;;;;25.97;46.07;98777.22;1782718;78;21629;-71
2021/06/13 10:39:40;;;;;;;2.75;2.08;;;;;;;25.96;46.64;98766.63;1809372;77;21005;-72
2021/06/13 10:42:10;;;;;;;2.10;1.90;;;;;;;26.01;47.08;98759.76;1818221;78;21799;-69
2021/06/13 10:44:54;;;;;;;2.27;2.00;;;;;;;26.08;47.20;98753.41;1817256;77;21055;-69
2021/06/13 10:47:22;;;;;;;2.25;1.60;;;;;;;26.16;47.15;98739.12;1819436;78;21056;-68
2021/06/13 10:50:03;;;;;;;3.00;1.92;;;;;;;26.26;46.93;98746.33;1818735;78;21065;-67
2021/06/13 10:52:35;;;;;;;2.00;1.90;;;;;;;26.38;46.78;98764.92;1817603;77;21079;-69
2021/06/13 10:55:00;;;;;;;1.70;1.60;;;;;;;26.52;46.43;98781.31;1812146;77;21928;-70
2021/06/13 10:57:32;;;;;;;1.67;1.57;;;;;;;26.64;45.37;98799.41;1743075;80;21089;-68
2021/06/13 11:00:07;;;;;;;2.75;2.52;;;;;;;26.78;45.08;98802.18;1750532;80;25578;-70
2021/06/13 11:02:42;;;;;;;7.78;4.12;;;;;;;26.93;44.53;98810.66;1797578;78;21089;-70
2021/06/13 11:05:09;;;;;;;7.62;3.27;;;;;;;27.09;44.24;98818.01;1810836;78;21073;-68
2021/06/13 11:07:42;;;;;;;5.33;3.58;;;;;;;27.22;43.67;98812.57;1803832;78;21116;-68
2021/06/13 11:10:16;;;;;;;4.78;3.22;;;;;;;27.37;43.86;98814.78;1814052;78;24135;-77
2021/06/13 11:13:05;;;;;;;3.70;2.92;;;;;;;27.49;43.83;98813.75;1814841;78;21060;-75
2021/06/13 11:15:42;;;;;;;4.78;2.45;;;;;;;27.59;43.41;98813.53;1816457;77;21036;-71
2021/06/13 11:18:29;;;;;;;3.15;2.40;;;;;;;27.64;42.51;98808.52;1805258;77;21644;-75
2021/06/13 11:21:07;;;;;;;2.87;1.45;;;;;;;27.61;42.03;98806.42;1815765;77;21063;-73
2021/06/13 11:23:40;;;;;;;2.83;1.80;;;;;;;27.55;42.46;98809.80;1814359;78;21033;-69
2021/06/13 11:26:10;;;;;;;5.55;2.10;;;;;;;27.57;42.94;98804.84;1803536;77;21113;-69
2021/06/13 11:28:45;;;;;;;5.08;4.55;;;;;;;27.62;42.83;98814.30;1814687;77;21513;-68
2021/06/13 11:31:18;;;;;;;4.00;2.35;;;;;;;27.67;42.57;98820.20;1811945;77;21034;-69
2021/06/13 11:33:48;;;;;;;4.45;2.37;;;;;;;27.65;42.04;98805.50;1815996;78;21136;-70
2021/06/13 11:36:25;;;;;;;1.82;1.72;;;;;;;27.65;41.92;98817.77;1816746;78;21037;-68
2021/06/13 11:39:06;;;;;;;3.33;2.22;;;;;;;27.64;42.04;98811.25;1818147;78;21083;-67
2021/06/13 11:41:42;;;;;;;3.00;2.00;;;;;;;27.63;42.07;98807.72;1817594;78;21026;-68
2021/06/13 11:44:13;;;;;;;4.00;1.80;;;;;;;27.62;42.14;98821.66;1815007;77;20994;-68
2021/06/13 11:46:42;;;;;;;1.80;1.70;;;;;;;27.58;42.28;98818.75;1804957;77;21148;-69
2021/06/13 11:49:18;;;;;;;3.42;1.65;;;;;;;27.54;41.87;98824.53;1819091;78;21041;-69